Impacts TAF Board INFO
FOR SITUATIONAL AWARENESS. NOT TO BE USED FOR FLIGHT PLANNING PURPOSES.
IDs:

KGWO - Greenwood/Leflore Ar, MS, US

Issued at 1122 UTC 21 May 2018
Updated at 1310 UTC 21 May 2018
Potential Impact None Slight Moderate High
Time1253Z 21/14Z 21/15Z 21/16Z 21/17Z 21/18Z 21/19Z 21/20Z 21/21Z 21/22Z 21/23Z 22/00Z 22/01Z 22/02Z>>
Type OBS PRVL PRVL PRVL PRVL PRVL PRVL PRVL PRVL PRVL PRVL PRVL PRVL PRVL
VIS 8 >6 >6 >6 >6 >6 >6 >6 >6 >6 >6 >6 >6 >6
CIG -- -- -- -- -- -- -- -- -- 40 40 40 40 40
Cover CLR SCT SCT SCT SCT SCT SCT SCT SCT OVC OVC OVC OVC OVC
FltCat VFR VFR VFR VFR VFR VFR VFR VFR VFR VFR VFR VFR VFR VFR
WX -- -- -- -- -- -- -- -- -- VCTS VCTS VCTS VCTS VCTS
WDir 130 140 140 140 140 140 140 140 140 130 130 130 130 130
WSpd 4 5 5 5 5 5 5 5 5 6 6 6 6 6
WGst -- -- -- -- -- -- -- -- -- -- -- -- -- --

Raw TAF
KGWO 211122Z 2112/2212 00000KT 5SM BR SCT250
  FM211400 14005KT P6SM FEW040 SCT250
  FM212200 13006KT P6SM VCTS BKN040CB OVC100
  FM220400 11003KT P6SM BKN250


Raw METAR
KGWO 211253Z AUTO 13004KT 8SM CLR 23/21 A3005 RMK AO2 SLP174 T02280211
KGWO 211204Z AUTO 00000KT 7SM FEW005 22/21 A3004 RMK AO2 T02220206
KGWO 211153Z AUTO 00000KT 6SM BR CLR 22/21 A3004 RMK AO2 SLP171 60006 70112 T02220206 10222 20211 53011
KGWO 211053Z AUTO 04004KT 8SM SCT065 21/21 A3001 RMK AO2 SLP162 T02110206

METAR Board
Radar Display
Forecast Discussion

FOR SITUATIONAL AWARENESS. NOT TO BE USED FOR FLIGHT PLANNING PURPOSES.